Time;durP1;ratioP1;P1;durP2;ratioP2;P2;SDS_P1;SDS_P2;PMS_P1;PMS_P2;Temp;Humidity;BMP_temperature;BMP_pressure;BME280_temperature;BME280_humidity;BME280_pressure;Samples;Min_cycle;Max_cycle;Signal;HPM_P1;HPM_P2
2024/04/07 00:02:09;;;;;;;2.55;1.20;;;;;;;;;;4936010;28;92660;-74
2024/04/07 00:04:34;;;;;;;3.50;1.50;;;;;;;;;;4933052;28;93268;-74
2024/04/07 00:07:01;;;;;;;3.42;1.45;;;;;;;;;;4949579;28;92465;-74
2024/04/07 00:09:27;;;;;;;4.20;1.38;;;;;;;;;;4939116;28;92747;-73
2024/04/07 00:11:54;;;;;;;2.50;1.20;;;;;;;;;;4939379;28;93058;-74
2024/04/07 00:14:20;;;;;;;4.10;1.60;;;;;;;;;;4950257;28;92417;-74
2024/04/07 00:16:45;;;;;;;1.92;1.20;;;;;;;;;;4950317;28;92402;-74
2024/04/07 00:19:11;;;;;;;2.67;1.48;;;;;;;;;;4949521;28;93155;-73
2024/04/07 00:21:36;;;;;;;3.10;1.27;;;;;;;;;;4936407;28;92561;-74
2024/04/07 00:24:02;;;;;;;2.88;1.38;;;;;;;;;;4932135;28;96245;-74
2024/04/07 00:26:27;;;;;;;4.07;1.60;;;;;;;;;;4949470;28;92648;-74
2024/04/07 00:28:53;;;;;;;2.55;1.38;;;;;;;;;;4949957;28;93530;-74
2024/04/07 00:31:18;;;;;;;3.67;1.50;;;;;;;;;;4932667;28;95735;-74
2024/04/07 00:33:44;;;;;;;3.92;1.52;;;;;;;;;;4948804;28;92776;-74
2024/04/07 00:36:09;;;;;;;2.65;1.30;;;;;;;;;;4949353;28;93048;-74
2024/04/07 00:38:35;;;;;;;3.53;1.40;;;;;;;;;;4949869;28;93090;-73
2024/04/07 00:41:01;;;;;;;4.15;1.50;;;;;;;;;;4949889;28;92196;-74
2024/04/07 00:43:27;;;;;;;3.67;1.40;;;;;;;;;;4952149;28;92677;-74
2024/04/07 00:45:56;;;;;;;3.00;1.25;;;;;;;;;;4948650;28;92778;-74
2024/04/07 00:48:22;;;;;;;2.55;1.23;;;;;;;;;;4948101;28;94878;-73
2024/04/07 00:50:48;;;;;;;3.17;1.40;;;;;;;;;;4949211;28;93063;-73
2024/04/07 00:53:14;;;;;;;3.88;1.40;;;;;;;;;;4949000;28;92862;-74
2024/04/07 00:55:40;;;;;;;4.03;1.42;;;;;;;;;;4949315;28;93105;-74
2024/04/07 00:58:07;;;;;;;2.72;1.40;;;;;;;;;;4949264;28;92953;-74
2024/04/07 01:00:32;;;;;;;5.53;1.33;;;;;;;;;;4932914;28;92575;-74
2024/04/07 01:02:58;;;;;;;3.42;1.30;;;;;;;;;;4949597;28;93122;-74
2024/04/07 01:05:24;;;;;;;4.38;1.60;;;;;;;;;;4952755;28;92346;-74
2024/04/07 01:07:49;;;;;;;4.63;1.40;;;;;;;;;;4940099;28;94012;-74
2024/04/07 01:10:15;;;;;;;3.00;1.30;;;;;;;;;;4930178;28;93191;-74
2024/04/07 01:12:50;;;;;;;3.22;1.40;;;;;;;;;;4928442;28;95353;-74
2024/04/07 01:15:16;;;;;;;2.33;1.20;;;;;;;;;;4930187;28;95008;-73
2024/04/07 01:17:41;;;;;;;4.13;1.30;;;;;;;;;;4928722;28;93175;-73
2024/04/07 01:20:09;;;;;;;3.67;1.48;;;;;;;;;;4930124;28;92523;-74
2024/04/07 01:22:34;;;;;;;2.92;1.40;;;;;;;;;;4921553;28;94043;-74
2024/04/07 01:25:00;;;;;;;2.95;1.50;;;;;;;;;;4948851;28;94078;-74
2024/04/07 01:27:25;;;;;;;4.20;1.33;;;;;;;;;;4952363;28;92761;-73
2024/04/07 01:29:51;;;;;;;3.13;1.40;;;;;;;;;;4932927;28;93382;-74
2024/04/07 01:32:16;;;;;;;4.22;1.40;;;;;;;;;;4933548;28;92462;-74
2024/04/07 01:34:42;;;;;;;4.47;1.50;;;;;;;;;;4949858;28;92834;-74
2024/04/07 01:37:07;;;;;;;3.40;1.30;;;;;;;;;;4931026;28;95692;-74
2024/04/07 01:39:33;;;;;;;2.10;1.17;;;;;;;;;;4949371;28;92841;-74
2024/04/07 01:41:58;;;;;;;3.15;1.33;;;;;;;;;;4950524;28;94394;-73
2024/04/07 01:44:24;;;;;;;4.10;1.20;;;;;;;;;;4950406;28;93285;-75
2024/04/07 01:46:49;;;;;;;2.80;1.25;;;;;;;;;;4950421;28;99886;-74
2024/04/07 01:49:15;;;;;;;2.47;1.17;;;;;;;;;;4953767;28;93499;-74
2024/04/07 01:51:40;;;;;;;2.78;1.35;;;;;;;;;;4948185;28;92891;-74
2024/04/07 01:54:06;;;;;;;2.67;1.40;;;;;;;;;;4949177;28;93004;-74
2024/04/07 01:56:31;;;;;;;3.42;1.48;;;;;;;;;;4948405;28;93047;-74
2024/04/07 01:58:57;;;;;;;3.10;1.25;;;;;;;;;;4948550;28;92538;-74
2024/04/07 02:01:22;;;;;;;5.13;1.30;;;;;;;;;;4946812;28;95138;-74
2024/04/07 02:03:48;;;;;;;2.70;1.10;;;;;;;;;;4947342;28;92916;-74
2024/04/07 02:06:13;;;;;;;2.67;1.20;;;;;;;;;;4924831;28;92534;-74
2024/04/07 02:08:39;;;;;;;2.50;1.20;;;;;;;;;;4931534;28;92783;-74
2024/04/07 02:11:04;;;;;;;2.65;1.30;;;;;;;;;;4940163;28;92669;-74
2024/04/07 02:13:30;;;;;;;2.38;1.10;;;;;;;;;;4948424;28;93182;-74
2024/04/07 02:15:59;;;;;;;2.15;1.08;;;;;;;;;;4948320;28;94040;-74
2024/04/07 02:18:26;;;;;;;4.32;1.25;;;;;;;;;;4945969;28;91937;-74
2024/04/07 02:20:51;;;;;;;3.08;1.10;;;;;;;;;;4912465;28;93282;-74
2024/04/07 02:23:17;;;;;;;1.90;1.08;;;;;;;;;;4912039;28;94190;-74
2024/04/07 02:25:43;;;;;;;2.33;1.00;;;;;;;;;;4910097;28;94952;-74
2024/04/07 02:28:08;;;;;;;2.50;1.10;;;;;;;;;;4928801;28;95162;-74
2024/04/07 02:30:37;;;;;;;3.80;1.10;;;;;;;;;;4934654;28;94639;-74
2024/04/07 02:33:04;;;;;;;3.45;1.23;;;;;;;;;;4931835;28;92782;-74
2024/04/07 02:35:31;;;;;;;3.05;1.15;;;;;;;;;;4947431;28;93930;-74
2024/04/07 02:37:57;;;;;;;3.13;1.20;;;;;;;;;;4951480;28;93431;-74
2024/04/07 02:40:22;;;;;;;2.60;1.45;;;;;;;;;;4951331;28;93244;-74
2024/04/07 02:42:52;;;;;;;1.40;1.05;;;;;;;;;;4951313;28;93326;-74
2024/04/07 02:48:05;;;;;;;2.58;1.20;;;;;;;;;;4950887;28;99255;-74
2024/04/07 02:50:31;;;;;;;3.50;1.25;;;;;;;;;;4949372;28;95452;-74
2024/04/07 02:52:56;;;;;;;1.20;0.90;;;;;;;;;;4954459;28;93062;-74
2024/04/07 02:55:22;;;;;;;3.03;1.10;;;;;;;;;;4951321;28;93731;-74
2024/04/07 02:57:48;;;;;;;2.92;1.20;;;;;;;;;;4950243;28;92612;-74
2024/04/07 03:00:13;;;;;;;3.00;1.00;;;;;;;;;;4951112;28;93262;-73
2024/04/07 03:02:43;;;;;;;1.55;1.00;;;;;;;;;;4931164;28;93731;-74
2024/04/07 03:05:09;;;;;;;1.67;0.90;;;;;;;;;;4931424;28;92525;-74
2024/04/07 03:07:35;;;;;;;3.60;1.10;;;;;;;;;;4915410;28;95766;-74
2024/04/07 03:10:00;;;;;;;2.15;1.10;;;;;;;;;;4931734;28;92821;-73
2024/04/07 03:12:27;;;;;;;2.58;0.93;;;;;;;;;;4931640;28;92473;-74
2024/04/07 03:14:52;;;;;;;1.50;0.95;;;;;;;;;;4932991;28;94875;-74
2024/04/07 03:17:18;;;;;;;2.67;1.00;;;;;;;;;;4929798;28;92942;-74
2024/04/07 03:19:44;;;;;;;2.55;1.10;;;;;;;;;;4950014;28;92725;-74
2024/04/07 03:22:09;;;;;;;2.70;1.10;;;;;;;;;;4950939;28;93411;-74
2024/04/07 03:24:35;;;;;;;2.75;1.00;;;;;;;;;;4951704;28;92495;-74
2024/04/07 03:27:00;;;;;;;1.58;0.80;;;;;;;;;;4950677;28;94204;-74
2024/04/07 03:29:26;;;;;;;1.92;0.90;;;;;;;;;;4934641;28;93562;-74
2024/04/07 03:31:51;;;;;;;2.00;1.00;;;;;;;;;;4950509;28;91894;-74
2024/04/07 03:34:17;;;;;;;3.15;1.23;;;;;;;;;;4950911;28;92922;-74
2024/04/07 03:36:42;;;;;;;2.22;0.85;;;;;;;;;;4953136;28;93635;-73
2024/04/07 03:39:08;;;;;;;3.60;1.10;;;;;;;;;;4948857;28;95602;-74
2024/04/07 03:41:34;;;;;;;2.90;1.00;;;;;;;;;;4949809;28;93032;-75
2024/04/07 03:44:00;;;;;;;2.38;1.00;;;;;;;;;;4937938;28;92992;-74
2024/04/07 03:46:25;;;;;;;1.85;1.00;;;;;;;;;;4947568;28;92823;-74
2024/04/07 03:48:53;;;;;;;2.75;0.95;;;;;;;;;;4950565;28;93144;-74
2024/04/07 03:51:19;;;;;;;2.38;1.00;;;;;;;;;;4950631;28;93259;-74
2024/04/07 03:53:45;;;;;;;3.28;1.10;;;;;;;;;;4950648;28;92752;-74
2024/04/07 03:56:10;;;;;;;2.55;1.00;;;;;;;;;;4950959;28;92576;-73
2024/04/07 03:58:36;;;;;;;2.65;1.20;;;;;;;;;;4953854;28;92490;-73
2024/04/07 04:01:03;;;;;;;2.42;0.93;;;;;;;;;;4950007;28;93752;-75
2024/04/07 04:03:29;;;;;;;1.67;0.80;;;;;;;;;;4948433;28;95049;-74
2024/04/07 04:05:55;;;;;;;1.50;0.90;;;;;;;;;;4950135;28;102043;-74
2024/04/07 04:08:20;;;;;;;1.83;0.88;;;;;;;;;;4949937;28;93002;-74
2024/04/07 04:10:46;;;;;;;2.70;0.88;;;;;;;;;;4933939;28;92500;-74
2024/04/07 04:13:12;;;;;;;1.95;0.80;;;;;;;;;;4950085;28;92684;-75
2024/04/07 04:15:37;;;;;;;2.13;0.90;;;;;;;;;;4949397;28;93106;-74
2024/04/07 04:18:05;;;;;;;2.25;1.00;;;;;;;;;;4936385;28;92553;-74
2024/04/07 04:20:50;;;;;;;1.85;0.80;;;;;;;;;;4934147;28;92495;-74
2024/04/07 04:23:15;;;;;;;2.85;0.95;;;;;;;;;;4949768;28;92518;-74
2024/04/07 04:25:41;;;;;;;1.60;0.90;;;;;;;;;;4949503;28;93173;-74
2024/04/07 04:28:06;;;;;;;1.20;0.68;;;;;;;;;;4947938;28;95563;-74
2024/04/07 04:30:33;;;;;;;2.85;0.90;;;;;;;;;;4949938;28;92482;-74
2024/04/07 04:32:58;;;;;;;1.40;0.80;;;;;;;;;;4949549;28;93452;-74
2024/04/07 04:35:24;;;;;;;2.90;0.88;;;;;;;;;;4949213;28;93486;-74
2024/04/07 04:37:50;;;;;;;2.15;0.90;;;;;;;;;;4949503;28;93092;-74
2024/04/07 04:40:15;;;;;;;2.70;0.93;;;;;;;;;;4935607;28;95460;-74
2024/04/07 04:42:41;;;;;;;1.38;0.80;;;;;;;;;;4949223;28;93076;-74
2024/04/07 04:45:07;;;;;;;2.00;0.70;;;;;;;;;;4949758;28;92778;-74
2024/04/07 04:47:33;;;;;;;1.63;0.90;;;;;;;;;;4948059;28;92471;-73
2024/04/07 04:49:59;;;;;;;1.65;0.80;;;;;;;;;;4949154;28;92875;-73
2024/04/07 04:52:24;;;;;;;3.17;0.85;;;;;;;;;;4947786;28;94842;-74
2024/04/07 04:54:50;;;;;;;1.80;0.80;;;;;;;;;;4949511;28;93844;-74
2024/04/07 04:57:15;;;;;;;1.13;0.73;;;;;;;;;;4949389;28;93023;-74
2024/04/07 04:59:41;;;;;;;1.58;0.80;;;;;;;;;;4914479;28;94137;-73
2024/04/07 05:02:06;;;;;;;1.50;0.70;;;;;;;;;;4943982;28;93126;-74
2024/04/07 05:04:32;;;;;;;2.42;0.80;;;;;;;;;;4914030;28;92683;-74
2024/04/07 05:06:58;;;;;;;2.45;0.77;;;;;;;;;;4929350;28;93214;-75
2024/04/07 05:09:23;;;;;;;2.00;0.90;;;;;;;;;;4930526;28;92650;-74
2024/04/07 05:11:49;;;;;;;1.50;0.70;;;;;;;;;;4928563;28;92480;-74
2024/04/07 05:14:14;;;;;;;0.90;0.70;;;;;;;;;;4929360;28;94199;-74
2024/04/07 05:16:40;;;;;;;2.08;0.80;;;;;;;;;;4911993;28;94834;-74
2024/04/07 05:19:05;;;;;;;0.85;0.80;;;;;;;;;;4929316;28;95105;-74
2024/04/07 05:21:32;;;;;;;1.10;0.80;;;;;;;;;;4928556;28;94381;-74
2024/04/07 05:23:57;;;;;;;1.15;0.70;;;;;;;;;;4932217;28;92940;-74
2024/04/07 05:26:23;;;;;;;1.30;0.90;;;;;;;;;;4928469;28;92940;-74
2024/04/07 05:28:48;;;;;;;0.95;0.68;;;;;;;;;;4928850;28;92795;-74
2024/04/07 05:31:14;;;;;;;1.23;0.63;;;;;;;;;;4932599;28;92934;-74
2024/04/07 05:33:40;;;;;;;2.28;0.68;;;;;;;;;;4948628;28;92501;-74
2024/04/07 05:36:06;;;;;;;1.48;0.60;;;;;;;;;;4944170;28;94183;-74
2024/04/07 05:38:35;;;;;;;0.98;0.60;;;;;;;;;;4948286;28;92914;-74
2024/04/07 05:41:01;;;;;;;0.82;0.73;;;;;;;;;;4946366;28;96025;-74
2024/04/07 05:43:27;;;;;;;1.55;0.70;;;;;;;;;;4947641;28;92870;-74
2024/04/07 05:45:53;;;;;;;1.10;0.63;;;;;;;;;;4950954;28;93098;-74
2024/04/07 05:48:20;;;;;;;1.48;0.60;;;;;;;;;;4948552;28;93651;-74
2024/04/07 05:50:46;;;;;;;1.70;0.80;;;;;;;;;;4931877;28;95812;-74
2024/04/07 05:53:11;;;;;;;2.67;0.90;;;;;;;;;;4948044;28;93032;-74
2024/04/07 05:55:37;;;;;;;2.38;0.70;;;;;;;;;;4947204;28;92915;-74
2024/04/07 05:58:03;;;;;;;1.08;0.65;;;;;;;;;;4948530;28;93586;-74
2024/04/07 06:00:30;;;;;;;2.30;0.73;;;;;;;;;;4948084;28;93258;-74
2024/04/07 06:02:55;;;;;;;1.65;0.70;;;;;;;;;;4948294;28;93003;-74
2024/04/07 06:05:21;;;;;;;2.58;0.77;;;;;;;;;;4946602;28;95027;-74
2024/04/07 06:07:46;;;;;;;1.27;0.70;;;;;;;;;;4950455;28;93078;-75
2024/04/07 06:10:12;;;;;;;1.35;1.00;;;;;;;;;;4948188;28;92751;-74
2024/04/07 06:12:37;;;;;;;1.75;0.70;;;;;;;;;;4931825;28;93110;-74
2024/04/07 06:15:04;;;;;;;1.67;0.70;;;;;;;;;;4948254;28;92692;-74
2024/04/07 06:17:30;;;;;;;0.80;0.65;;;;;;;;;;4947887;28;93855;-74
2024/04/07 06:19:55;;;;;;;0.77;0.60;;;;;;;;;;4948468;28;93090;-74
2024/04/07 06:22:21;;;;;;;2.10;0.70;;;;;;;;;;4949133;28;91937;-74
2024/04/07 06:24:47;;;;;;;2.85;0.70;;;;;;;;;;4948623;28;94181;-74
2024/04/07 06:27:12;;;;;;;1.23;0.70;;;;;;;;;;4951503;28;93104;-74
2024/04/07 06:29:38;;;;;;;1.30;0.60;;;;;;;;;;4931253;28;94895;-74
2024/04/07 06:32:03;;;;;;;0.85;0.68;;;;;;;;;;4948908;28;93138;-73
2024/04/07 06:34:30;;;;;;;1.80;0.80;;;;;;;;;;4933472;28;92967;-74
2024/04/07 06:36:55;;;;;;;1.38;0.70;;;;;;;;;;4949670;28;92802;-74
2024/04/07 06:39:21;;;;;;;0.95;0.60;;;;;;;;;;4948158;28;93379;-74
2024/04/07 06:41:46;;;;;;;1.58;0.75;;;;;;;;;;4947466;28;92854;-74
2024/04/07 06:44:12;;;;;;;1.50;0.60;;;;;;;;;;4947178;28;92853;-74
2024/04/07 06:46:37;;;;;;;2.17;0.77;;;;;;;;;;4931212;28;93494;-74
2024/04/07 06:49:03;;;;;;;0.95;0.70;;;;;;;;;;4950628;28;92499;-74
2024/04/07 06:51:31;;;;;;;0.60;0.60;;;;;;;;;;4946657;28;92913;-74
2024/04/07 06:53:57;;;;;;;1.45;0.80;;;;;;;;;;4929219;28;95342;-74
2024/04/07 06:56:22;;;;;;;2.40;0.70;;;;;;;;;;4947374;28;95051;-74
2024/04/07 06:58:48;;;;;;;0.57;0.50;;;;;;;;;;4946960;28;93224;-74
2024/04/07 07:01:13;;;;;;;3.25;0.75;;;;;;;;;;4946759;28;93323;-74
2024/04/07 07:03:39;;;;;;;1.13;0.68;;;;;;;;;;4946637;28;92892;-74
2024/04/07 07:06:04;;;;;;;1.10;0.70;;;;;;;;;;4930829;28;93936;-73
2024/04/07 07:08:30;;;;;;;1.35;0.70;;;;;;;;;;4947878;28;93097;-74
2024/04/07 07:11:00;;;;;;;1.67;0.70;;;;;;;;;;4950908;28;92923;-75
2024/04/07 07:13:30;;;;;;;1.67;0.82;;;;;;;;;;4947496;28;93122;-73
2024/04/07 07:15:56;;;;;;;1.05;0.50;;;;;;;;;;4949700;28;98100;-73
2024/04/07 07:18:22;;;;;;;1.35;0.60;;;;;;;;;;4932323;28;97990;-73
2024/04/07 07:20:48;;;;;;;1.60;0.60;;;;;;;;;;4950350;28;92581;-73
2024/04/07 07:23:14;;;;;;;1.00;0.57;;;;;;;;;;4933681;28;96287;-73
2024/04/07 07:25:40;;;;;;;2.22;0.77;;;;;;;;;;4949837;28;92708;-73
2024/04/07 07:28:06;;;;;;;2.22;0.60;;;;;;;;;;4944790;28;92883;-73
2024/04/07 07:30:31;;;;;;;1.95;0.80;;;;;;;;;;4930577;28;93756;-73
2024/04/07 07:32:57;;;;;;;0.90;0.50;;;;;;;;;;4933220;28;93123;-73
2024/04/07 07:35:23;;;;;;;2.47;0.90;;;;;;;;;;4945967;28;92861;-74
2024/04/07 07:37:48;;;;;;;0.82;0.55;;;;;;;;;;4948964;28;92526;-73
2024/04/07 07:40:14;;;;;;;2.35;0.60;;;;;;;;;;4949757;28;92812;-73
2024/04/07 07:42:39;;;;;;;2.03;0.55;;;;;;;;;;4948188;28;101853;-73
2024/04/07 07:45:05;;;;;;;1.52;0.60;;;;;;;;;;4949655;28;93115;-73
2024/04/07 07:47:31;;;;;;;1.85;0.70;;;;;;;;;;4949289;28;92655;-73
2024/04/07 07:49:57;;;;;;;1.48;0.50;;;;;;;;;;4933685;28;95866;-73
2024/04/07 07:52:23;;;;;;;2.10;0.90;;;;;;;;;;4949705;28;93042;-73
2024/04/07 07:54:49;;;;;;;2.20;0.70;;;;;;;;;;4953298;28;93246;-74
2024/04/07 07:57:15;;;;;;;2.08;0.70;;;;;;;;;;4946402;28;93928;-73
2024/04/07 07:59:41;;;;;;;2.58;0.70;;;;;;;;;;4929389;28;91837;-74
2024/04/07 08:02:06;;;;;;;1.52;0.60;;;;;;;;;;4930723;28;93507;-73
2024/04/07 08:04:32;;;;;;;1.83;0.70;;;;;;;;;;4930759;28;93830;-75
2024/04/07 08:06:58;;;;;;;1.75;0.70;;;;;;;;;;4928593;28;95068;-73
2024/04/07 08:09:24;;;;;;;1.70;0.60;;;;;;;;;;4925973;28;95690;-74
2024/04/07 08:11:50;;;;;;;1.00;0.55;;;;;;;;;;4929670;28;93183;-73
2024/04/07 08:14:16;;;;;;;0.93;0.70;;;;;;;;;;4930209;28;93010;-73
2024/04/07 08:16:42;;;;;;;1.77;0.70;;;;;;;;;;4932614;28;93724;-73
2024/04/07 08:19:08;;;;;;;2.05;0.70;;;;;;;;;;4913893;28;92972;-73
2024/04/07 08:21:34;;;;;;;1.70;0.80;;;;;;;;;;4929144;28;93732;-73
2024/04/07 08:24:00;;;;;;;3.05;0.82;;;;;;;;;;4932568;28;92271;-73
2024/04/07 08:26:25;;;;;;;1.52;0.65;;;;;;;;;;4948188;28;92765;-73
2024/04/07 08:28:51;;;;;;;2.75;0.80;;;;;;;;;;4949618;28;92625;-73
2024/04/07 08:31:16;;;;;;;2.22;0.80;;;;;;;;;;4947042;28;96335;-73
2024/04/07 08:33:42;;;;;;;1.55;0.68;;;;;;;;;;4948421;28;93058;-73
2024/04/07 08:36:07;;;;;;;0.80;0.70;;;;;;;;;;4935224;28;94981;-73
2024/04/07 08:38:33;;;;;;;2.05;0.70;;;;;;;;;;4943504;28;92546;-73
2024/04/07 08:40:58;;;;;;;3.40;1.10;;;;;;;;;;4932730;28;93560;-73
2024/04/07 08:43:25;;;;;;;1.30;0.57;;;;;;;;;;4948324;28;93221;-73
2024/04/07 08:45:51;;;;;;;1.48;0.65;;;;;;;;;;4932305;28;92601;-72
2024/04/07 08:48:18;;;;;;;2.05;0.70;;;;;;;;;;4949272;28;92880;-75
2024/04/07 08:50:48;;;;;;;1.30;0.70;;;;;;;;;;4948899;28;93246;-74
2024/04/07 08:53:14;;;;;;;2.58;0.80;;;;;;;;;;4937508;28;92591;-74
2024/04/07 08:55:40;;;;;;;2.58;0.80;;;;;;;;;;4929000;28;95666;-74
2024/04/07 08:58:05;;;;;;;1.05;0.60;;;;;;;;;;4952017;28;93773;-74
2024/04/07 09:00:31;;;;;;;2.45;0.80;;;;;;;;;;4949550;28;92810;-75
2024/04/07 09:02:58;;;;;;;2.00;0.90;;;;;;;;;;4949129;28;93129;-74
2024/04/07 09:05:23;;;;;;;1.88;0.70;;;;;;;;;;4949175;28;93001;-73
2024/04/07 09:07:49;;;;;;;1.58;0.77;;;;;;;;;;4947724;28;92801;-73
2024/04/07 09:10:14;;;;;;;0.95;0.55;;;;;;;;;;4948696;28;93120;-74
2024/04/07 09:12:40;;;;;;;1.23;0.60;;;;;;;;;;4949445;28;92054;-74
2024/04/07 09:15:08;;;;;;;3.38;0.75;;;;;;;;;;4949501;28;92924;-73
2024/04/07 09:17:34;;;;;;;1.88;0.50;;;;;;;;;;4947768;28;93226;-73
2024/04/07 09:20:00;;;;;;;1.63;0.70;;;;;;;;;;4934027;28;95320;-73
2024/04/07 09:22:25;;;;;;;2.22;0.70;;;;;;;;;;4934404;28;93186;-74
2024/04/07 09:24:58;;;;;;;1.98;0.70;;;;;;;;;;4948975;28;92929;-74
2024/04/07 09:27:23;;;;;;;2.08;0.80;;;;;;;;;;4948308;28;93494;-74
2024/04/07 09:29:49;;;;;;;1.30;0.70;;;;;;;;;;4947281;28;93158;-74
2024/04/07 09:32:16;;;;;;;2.10;0.65;;;;;;;;;;4948141;28;92850;-74
2024/04/07 09:34:42;;;;;;;2.17;0.90;;;;;;;;;;4947992;28;92851;-73
2024/04/07 09:37:08;;;;;;;0.98;0.60;;;;;;;;;;4948209;28;92337;-74
2024/04/07 09:39:33;;;;;;;0.70;0.60;;;;;;;;;;4947700;28;92869;-74
2024/04/07 09:42:02;;;;;;;0.75;0.57;;;;;;;;;;4933777;28;94148;-74
2024/04/07 09:44:35;;;;;;;1.63;0.50;;;;;;;;;;4913057;28;95109;-73
2024/04/07 09:47:07;;;;;;;2.38;0.70;;;;;;;;;;4948143;28;94943;-74
2024/04/07 09:49:36;;;;;;;1.00;0.70;;;;;;;;;;4919251;28;94184;-74
2024/04/07 09:52:04;;;;;;;1.80;0.70;;;;;;;;;;4896298;28;92536;-75
2024/04/07 09:54:29;;;;;;;2.72;0.70;;;;;;;;;;4931763;28;92757;-74
2024/04/07 09:56:55;;;;;;;1.48;0.70;;;;;;;;;;4931472;28;95933;-74
2024/04/07 09:59:21;;;;;;;2.20;0.70;;;;;;;;;;4948276;28;92763;-74
2024/04/07 10:01:47;;;;;;;1.73;0.90;;;;;;;;;;4931248;28;97027;-74
2024/04/07 10:04:13;;;;;;;2.08;0.70;;;;;;;;;;4951146;28;93110;-74
2024/04/07 10:06:39;;;;;;;2.40;0.80;;;;;;;;;;4947793;28;92846;-73
2024/04/07 10:09:05;;;;;;;2.50;0.65;;;;;;;;;;4946081;28;95576;-75
2024/04/07 10:11:30;;;;;;;2.10;0.80;;;;;;;;;;4947558;28;92504;-73
2024/04/07 10:13:56;;;;;;;3.17;0.70;;;;;;;;;;4948003;28;92508;-74
2024/04/07 10:16:26;;;;;;;2.03;0.90;;;;;;;;;;4946111;28;93612;-74
2024/04/07 10:18:51;;;;;;;1.67;0.80;;;;;;;;;;4934211;28;92680;-73
2024/04/07 10:21:18;;;;;;;2.33;0.90;;;;;;;;;;4931383;28;93933;-74
2024/04/07 10:23:44;;;;;;;3.10;0.90;;;;;;;;;;4946429;28;94271;-74
2024/04/07 10:26:10;;;;;;;0.85;0.60;;;;;;;;;;4934831;28;92434;-74
2024/04/07 10:28:46;;;;;;;1.38;0.68;;;;;;;;;;4947875;28;93075;-74
2024/04/07 10:31:24;;;;;;;1.50;0.70;;;;;;;;;;4940422;28;92519;-74
2024/04/07 10:33:50;;;;;;;2.15;0.70;;;;;;;;;;4921773;28;95535;-73
2024/04/07 10:36:17;;;;;;;1.15;0.50;;;;;;;;;;4946853;28;93059;-74
2024/04/07 10:38:44;;;;;;;3.00;0.90;;;;;;;;;;4947805;28;92571;-74
2024/04/07 10:41:24;;;;;;;1.45;0.57;;;;;;;;;;4947384;28;93123;-73
2024/04/07 10:43:50;;;;;;;1.60;0.70;;;;;;;;;;4946902;28;93255;-74
2024/04/07 10:46:19;;;;;;;2.33;0.57;;;;;;;;;;4950555;28;92924;-74
2024/04/07 10:48:45;;;;;;;2.05;0.70;;;;;;;;;;4931210;28;92939;-74
2024/04/07 10:51:12;;;;;;;1.70;0.70;;;;;;;;;;4951611;28;92642;-74
2024/04/07 10:53:41;;;;;;;1.42;0.70;;;;;;;;;;4950351;28;92551;-74
2024/04/07 10:56:07;;;;;;;2.05;0.60;;;;;;;;;;4934557;28;95749;-74
2024/04/07 10:58:36;;;;;;;1.30;0.50;;;;;;;;;;4949428;28;94889;-74
2024/04/07 11:01:01;;;;;;;1.35;0.70;;;;;;;;;;4950853;28;94954;-74
2024/04/07 11:03:27;;;;;;;1.08;0.55;;;;;;;;;;4934342;28;93217;-75
2024/04/07 11:05:54;;;;;;;1.73;0.70;;;;;;;;;;4949908;28;92694;-74
2024/04/07 11:08:22;;;;;;;1.65;0.70;;;;;;;;;;4953943;28;92661;-74
2024/04/07 11:10:52;;;;;;;1.95;0.60;;;;;;;;;;4934291;28;92694;-74
2024/04/07 11:13:19;;;;;;;1.83;0.70;;;;;;;;;;4945560;28;93323;-74
2024/04/07 11:15:53;;;;;;;1.13;0.50;;;;;;;;;;4942230;28;92621;-75
2024/04/07 11:18:20;;;;;;;2.08;0.70;;;;;;;;;;4951389;28;92563;-75
2024/04/07 11:20:46;;;;;;;1.33;0.65;;;;;;;;;;4951398;28;92831;-75
2024/04/07 11:23:12;;;;;;;2.40;0.50;;;;;;;;;;4951356;28;95568;-74
2024/04/07 11:25:39;;;;;;;1.50;0.52;;;;;;;;;;4952878;28;92551;-74
2024/04/07 11:28:05;;;;;;;0.65;0.50;;;;;;;;;;4952952;28;94848;-75
2024/04/07 11:30:32;;;;;;;2.95;0.60;;;;;;;;;;4956654;28;93190;-74
2024/04/07 11:33:04;;;;;;;1.05;0.52;;;;;;;;;;4956798;28;92519;-74
2024/04/07 11:35:31;;;;;;;2.85;0.50;;;;;;;;;;4961254;28;93112;-74
2024/04/07 11:37:56;;;;;;;0.63;0.50;;;;;;;;;;4933985;28;92898;-74
2024/04/07 11:40:22;;;;;;;0.85;0.50;;;;;;;;;;4934483;28;93937;-74
2024/04/07 11:42:47;;;;;;;0.60;0.60;;;;;;;;;;4941332;28;92953;-74
2024/04/07 11:45:13;;;;;;;1.30;0.60;;;;;;;;;;4930282;28;93060;-74
2024/04/07 11:47:39;;;;;;;1.33;0.50;;;;;;;;;;4931874;28;95282;-74
2024/04/07 11:50:05;;;;;;;1.20;0.47;;;;;;;;;;4933647;28;93244;-74
2024/04/07 11:52:30;;;;;;;2.90;0.50;;;;;;;;;;4953140;28;92549;-74
2024/04/07 11:54:56;;;;;;;0.95;0.45;;;;;;;;;;4933558;28;95119;-74
2024/04/07 11:57:21;;;;;;;3.33;0.60;;;;;;;;;;4950214;28;92395;-74
2024/04/07 11:59:47;;;;;;;1.73;0.63;;;;;;;;;;4932788;28;92488;-73
2024/04/07 12:02:12;;;;;;;1.40;0.60;;;;;;;;;;4949402;28;93669;-74
2024/04/07 12:04:40;;;;;;;1.65;0.60;;;;;;;;;;4950614;28;92093;-75
2024/04/07 12:07:07;;;;;;;1.33;0.50;;;;;;;;;;4949763;28;93146;-74
2024/04/07 12:09:32;;;;;;;1.85;0.45;;;;;;;;;;4948832;28;93052;-74
2024/04/07 12:11:58;;;;;;;1.67;0.63;;;;;;;;;;4948024;28;94940;-76
2024/04/07 12:14:23;;;;;;;0.77;0.50;;;;;;;;;;4952637;28;95089;-75
2024/04/07 12:16:49;;;;;;;1.38;0.60;;;;;;;;;;4949667;28;92749;-75
2024/04/07 12:19:14;;;;;;;1.75;0.50;;;;;;;;;;4949992;28;92816;-74
2024/04/07 12:21:40;;;;;;;0.65;0.50;;;;;;;;;;4932672;28;94400;-74
2024/04/07 12:24:05;;;;;;;1.52;0.60;;;;;;;;;;4939303;28;92705;-74
2024/04/07 12:26:31;;;;;;;1.13;0.50;;;;;;;;;;4943982;28;93159;-75
2024/04/07 12:28:57;;;;;;;0.95;0.45;;;;;;;;;;4949650;28;92550;-75
2024/04/07 12:31:23;;;;;;;1.25;0.50;;;;;;;;;;4949806;28;92895;-74
2024/04/07 12:33:49;;;;;;;1.60;0.60;;;;;;;;;;4951233;28;93189;-75
2024/04/07 12:36:18;;;;;;;1.50;0.40;;;;;;;;;;4947566;28;95666;-75
2024/04/07 12:38:43;;;;;;;1.33;0.70;;;;;;;;;;4917354;28;97876;-75
2024/04/07 12:41:09;;;;;;;2.13;0.60;;;;;;;;;;4929678;28;93306;-75
2024/04/07 12:43:34;;;;;;;1.02;0.52;;;;;;;;;;4929763;28;93780;-75
2024/04/07 12:46:00;;;;;;;1.73;0.40;;;;;;;;;;4930849;28;92793;-75
2024/04/07 12:48:26;;;;;;;1.35;0.50;;;;;;;;;;4940465;28;93238;-75
2024/04/07 12:50:52;;;;;;;0.65;0.40;;;;;;;;;;4949383;28;92670;-75
2024/04/07 12:53:17;;;;;;;2.03;0.57;;;;;;;;;;4949836;28;92487;-75
2024/04/07 12:55:43;;;;;;;1.15;0.60;;;;;;;;;;4951600;28;93628;-75
2024/04/07 12:58:08;;;;;;;1.83;0.60;;;;;;;;;;4949017;28;93285;-75
2024/04/07 13:00:35;;;;;;;1.05;0.50;;;;;;;;;;4946873;28;97056;-74
2024/04/07 13:03:02;;;;;;;1.00;0.50;;;;;;;;;;4948968;28;92900;-75
2024/04/07 13:05:27;;;;;;;0.95;0.40;;;;;;;;;;4927966;28;95441;-75
2024/04/07 13:07:53;;;;;;;1.17;0.60;;;;;;;;;;4935988;28;92878;-75
2024/04/07 13:10:18;;;;;;;1.17;0.65;;;;;;;;;;4948740;28;92788;-75
2024/04/07 13:12:44;;;;;;;0.98;0.70;;;;;;;;;;4947890;28;93303;-75
2024/04/07 13:15:10;;;;;;;1.10;0.50;;;;;;;;;;4948570;28;100191;-74
2024/04/07 13:17:36;;;;;;;0.88;0.40;;;;;;;;;;4951572;28;91919;-74
2024/04/07 13:20:01;;;;;;;1.02;0.60;;;;;;;;;;4948733;28;92912;-75
2024/04/07 13:22:27;;;;;;;1.42;0.40;;;;;;;;;;4932275;28;92649;-74
2024/04/07 13:24:53;;;;;;;0.52;0.40;;;;;;;;;;4947266;28;94970;-75
2024/04/07 13:27:19;;;;;;;1.52;0.50;;;;;;;;;;4932474;28;93551;-75
2024/04/07 13:29:45;;;;;;;1.00;0.40;;;;;;;;;;4931881;28;92572;-75
2024/04/07 13:32:10;;;;;;;0.40;0.40;;;;;;;;;;4932103;28;94141;-75
2024/04/07 13:34:36;;;;;;;0.77;0.32;;;;;;;;;;4948560;28;93226;-75
2024/04/07 13:37:02;;;;;;;0.88;0.57;;;;;;;;;;4948603;28;93037;-75
2024/04/07 13:39:28;;;;;;;0.55;0.45;;;;;;;;;;4951390;28;92735;-75
2024/04/07 13:41:53;;;;;;;1.77;0.50;;;;;;;;;;4948229;28;92375;-75
2024/04/07 13:44:19;;;;;;;0.60;0.30;;;;;;;;;;4948380;28;92789;-75
2024/04/07 13:46:49;;;;;;;1.58;0.50;;;;;;;;;;4948389;28;93605;-75
2024/04/07 13:49:15;;;;;;;0.30;0.30;;;;;;;;;;4940517;28;95187;-75
2024/04/07 13:51:41;;;;;;;1.23;0.35;;;;;;;;;;4928046;28;95231;-75
2024/04/07 13:54:06;;;;;;;0.68;0.43;;;;;;;;;;4929082;28;93057;-75
2024/04/07 13:56:32;;;;;;;2.05;0.50;;;;;;;;;;4928887;28;93038;-75
2024/04/07 13:58:57;;;;;;;0.93;0.40;;;;;;;;;;4912236;28;92957;-75
2024/04/07 14:01:23;;;;;;;0.82;0.40;;;;;;;;;;4932547;28;93187;-75
2024/04/07 14:03:48;;;;;;;0.70;0.30;;;;;;;;;;4933357;28;93022;-76
2024/04/07 14:06:14;;;;;;;1.30;0.60;;;;;;;;;;4948266;28;92272;-75
2024/04/07 14:08:39;;;;;;;1.15;0.52;;;;;;;;;;4931532;28;92786;-75
2024/04/07 14:11:05;;;;;;;0.50;0.50;;;;;;;;;;4948290;28;93472;-75
2024/04/07 14:13:30;;;;;;;1.20;0.52;;;;;;;;;;4929410;28;97867;-75
2024/04/07 14:15:56;;;;;;;0.50;0.50;;;;;;;;;;4947852;28;93300;-75
2024/04/07 14:18:22;;;;;;;1.70;0.52;;;;;;;;;;4931627;28;92589;-75
2024/04/07 14:20:47;;;;;;;1.45;0.50;;;;;;;;;;4947719;28;93019;-75
2024/04/07 14:23:12;;;;;;;0.75;0.32;;;;;;;;;;4950085;28;92895;-75
2024/04/07 14:25:39;;;;;;;0.90;0.43;;;;;;;;;;4945872;28;92753;-75
2024/04/07 14:28:08;;;;;;;1.70;0.50;;;;;;;;;;4946470;28;95126;-75
2024/04/07 14:30:36;;;;;;;0.65;0.50;;;;;;;;;;4938385;28;92126;-75
2024/04/07 14:33:02;;;;;;;1.08;0.50;;;;;;;;;;4928120;28;93042;-75
2024/04/07 14:35:28;;;;;;;0.60;0.50;;;;;;;;;;4936130;28;92563;-75
2024/04/07 14:37:53;;;;;;;0.75;0.30;;;;;;;;;;4945124;28;95361;-75
2024/04/07 14:40:19;;;;;;;0.75;0.30;;;;;;;;;;4947172;28;93111;-75